createdAt,value
2022-08-05T00:00:46.244Z,18.48
2022-08-05T00:03:16.513Z,18.44
2022-08-05T00:06:05.524Z,18.42
2022-08-05T00:08:35.579Z,18.40
2022-08-05T00:11:20.605Z,18.33
2022-08-05T00:13:56.746Z,18.29
2022-08-05T00:16:35.880Z,18.26
2022-08-05T00:19:06.509Z,18.25
2022-08-05T00:21:35.942Z,18.25
2022-08-05T00:24:10.922Z,18.25
2022-08-05T00:26:46.711Z,18.28
2022-08-05T00:29:22.730Z,18.28
2022-08-05T00:32:12.571Z,18.30
2022-08-05T00:35:03.727Z,18.32
2022-08-05T00:37:35.388Z,18.31
2022-08-05T00:40:05.560Z,18.31
2022-08-05T00:42:39.819Z,18.28
2022-08-05T00:45:11.506Z,18.28
2022-08-05T00:47:56.966Z,18.30
2022-08-05T00:50:27.401Z,18.30
2022-08-05T00:52:56.547Z,18.34
2022-08-05T00:55:42.366Z,18.36
2022-08-05T00:58:12.223Z,18.36
2022-08-05T01:00:42.576Z,18.35
2022-08-05T01:03:12.556Z,18.37
2022-08-05T01:05:54.559Z,18.37
2022-08-05T01:08:41.364Z,18.27
2022-08-05T01:11:22.670Z,18.27
2022-08-05T01:14:08.555Z,18.21
2022-08-05T01:16:48.425Z,18.19
2022-08-05T01:19:56.200Z,18.11
2022-08-05T01:22:39.576Z,18.07
2022-08-05T01:25:39.716Z,18.02
2022-08-05T01:28:25.776Z,17.95
2022-08-05T01:31:00.831Z,17.94
2022-08-05T01:33:36.851Z,17.92
2022-08-05T01:36:16.202Z,17.91
2022-08-05T01:38:48.415Z,17.87
2022-08-05T01:41:22.551Z,17.79
2022-08-05T01:43:55.933Z,17.71
2022-08-05T01:46:41.942Z,17.67
2022-08-05T01:49:22.991Z,17.61
2022-08-05T01:51:58.962Z,17.58
2022-08-05T01:54:46.030Z,17.52
2022-08-05T01:58:10.128Z,17.50
2022-08-05T02:00:11.880Z,17.46
2022-08-05T02:02:46.436Z,17.34
2022-08-05T02:05:23.719Z,17.38
2022-08-05T02:08:00.961Z,17.39
2022-08-05T02:10:37.532Z,17.42
2022-08-05T02:13:16.088Z,17.44
2022-08-05T02:15:55.060Z,17.47
2022-08-05T02:18:34.692Z,17.50
2022-08-05T02:21:14.666Z,17.49
2022-08-05T02:23:49.345Z,17.51
2022-08-05T02:26:26.497Z,17.50
2022-08-05T02:28:58.271Z,17.52
2022-08-05T02:31:34.794Z,17.52
2022-08-05T02:34:10.086Z,17.51
2022-08-05T02:36:43.686Z,17.50
2022-08-05T02:39:14.086Z,17.46
2022-08-05T02:42:01.026Z,17.41
2022-08-05T02:44:31.818Z,17.38
2022-08-05T02:47:03.210Z,17.29
2022-08-05T02:49:37.755Z,17.26
2022-08-05T02:52:13.685Z,17.25
2022-08-05T02:54:57.951Z,17.25
2022-08-05T02:58:11.169Z,17.18
2022-08-05T03:00:18.962Z,17.10
2022-08-05T03:02:50.027Z,17.07
2022-08-05T03:05:21.637Z,17.06
2022-08-05T03:08:09.411Z,17.04
2022-08-05T03:10:37.906Z,17.05
2022-08-05T03:13:16.851Z,17.05
2022-08-05T03:15:46.155Z,17.06
2022-08-05T03:18:17.438Z,17.06
2022-08-05T03:20:48.739Z,17.06
2022-08-05T03:23:17.707Z,17.06
2022-08-05T03:26:04.695Z,17.05
2022-08-05T03:28:34.724Z,16.99
2022-08-05T03:31:05.084Z,16.95
2022-08-05T03:33:50.849Z,16.92
2022-08-05T03:36:27.998Z,16.92
2022-08-05T03:38:59.217Z,16.96
2022-08-05T03:41:33.247Z,17.01
2022-08-05T03:44:11.276Z,17.05
2022-08-05T03:46:40.232Z,17.11
2022-08-05T03:49:09.901Z,17.13
2022-08-05T03:52:38.510Z,17.14
2022-08-05T03:55:51.936Z,17.15
2022-08-05T03:57:41.940Z,17.17
2022-08-05T04:00:16.299Z,17.20
2022-08-05T04:02:57.992Z,17.22
2022-08-05T04:05:34.025Z,17.21
2022-08-05T04:08:29.766Z,17.20
2022-08-05T04:10:54.548Z,17.14
2022-08-05T04:13:23.836Z,17.11
2022-08-05T04:16:02.982Z,17.06
2022-08-05T04:18:34.462Z,16.99
2022-08-05T04:21:05.910Z,16.89
2022-08-05T04:24:04.900Z,16.86
2022-08-05T04:26:24.747Z,16.86
2022-08-05T04:28:53.076Z,16.86
2022-08-05T04:31:21.483Z,16.86
2022-08-05T04:34:17.302Z,16.85
2022-08-05T04:36:45.577Z,16.84
2022-08-05T04:39:15.180Z,16.84
2022-08-05T04:41:43.522Z,16.84
2022-08-05T04:44:13.940Z,16.82
2022-08-05T04:46:46.972Z,16.79
2022-08-05T04:49:16.751Z,16.74
2022-08-05T04:52:00.140Z,16.68
2022-08-05T04:54:29.020Z,16.65
2022-08-05T04:56:59.658Z,16.62
2022-08-05T04:59:36.817Z,16.60
2022-08-05T05:02:36.709Z,16.60
2022-08-05T05:05:01.707Z,16.55
2022-08-05T05:07:35.389Z,16.52
2022-08-05T05:10:06.540Z,16.52
2022-08-05T05:12:36.839Z,16.53
2022-08-05T05:15:10.758Z,16.56
2022-08-05T05:17:55.480Z,16.59
2022-08-05T05:20:28.389Z,16.66
2022-08-05T05:22:59.226Z,16.69
2022-08-05T05:25:33.011Z,16.73
2022-08-05T05:28:09.561Z,16.76
2022-08-05T05:30:38.367Z,16.77
2022-08-05T05:33:17.102Z,16.82
2022-08-05T05:35:47.400Z,16.87
2022-08-05T05:38:22.516Z,16.93
2022-08-05T05:40:56.971Z,17.01
2022-08-05T05:43:54.636Z,17.05
2022-08-05T05:46:17.778Z,17.08
2022-08-05T05:48:48.816Z,17.12
2022-08-05T05:51:25.680Z,17.13
2022-08-05T05:53:59.345Z,17.15
2022-08-05T05:56:33.138Z,17.17
2022-08-05T05:59:05.452Z,17.19
2022-08-05T06:01:37.654Z,17.15
2022-08-05T06:04:12.162Z,17.05
2022-08-05T06:06:42.598Z,17.12
2022-08-05T06:09:17.300Z,17.16
2022-08-05T06:12:02.006Z,17.16
2022-08-05T06:14:31.281Z,17.19
2022-08-05T06:17:02.112Z,17.17
2022-08-05T06:19:57.070Z,17.10
2022-08-05T06:22:30.224Z,17.04
2022-08-05T06:25:25.288Z,17.07
2022-08-05T06:28:10.932Z,17.15
2022-08-05T06:30:42.002Z,17.25
2022-08-05T06:33:11.036Z,17.26
2022-08-05T06:36:07.137Z,17.28
2022-08-05T06:38:36.911Z,17.31
2022-08-05T06:41:07.856Z,17.30
2022-08-05T06:43:59.755Z,17.28
2022-08-05T06:46:30.019Z,17.29
2022-08-05T06:49:00.745Z,17.33
2022-08-05T06:51:31.101Z,17.39
2022-08-05T06:54:01.900Z,17.44
2022-08-05T06:56:34.387Z,17.52
2022-08-05T06:59:03.668Z,17.61
2022-08-05T07:01:37.167Z,17.65
2022-08-05T07:04:09.363Z,17.67
2022-08-05T07:06:38.518Z,17.70
2022-08-05T07:09:07.296Z,17.77
2022-08-05T07:11:39.890Z,17.85
2022-08-05T07:14:29.368Z,17.91
2022-08-05T07:18:01.767Z,17.91
2022-08-05T07:22:42.217Z,17.94
2022-08-05T07:25:53.919Z,17.99
2022-08-05T07:28:07.345Z,18.05
2022-08-05T07:30:40.100Z,18.10
2022-08-05T07:33:16.426Z,18.13
2022-08-05T07:36:02.055Z,18.15
2022-08-05T07:38:43.103Z,18.24
2022-08-05T07:42:09.070Z,18.36
2022-08-05T07:44:14.435Z,18.36
2022-08-05T07:46:48.433Z,18.36
2022-08-05T07:49:18.317Z,18.33
2022-08-05T07:51:53.560Z,18.27
2022-08-05T07:54:30.866Z,18.21
2022-08-05T07:57:13.998Z,18.19
2022-08-05T07:59:48.895Z,18.16
2022-08-05T08:02:18.146Z,18.15
2022-08-05T08:04:48.632Z,18.17
2022-08-05T08:07:18.415Z,18.20
2022-08-05T08:09:52.299Z,18.24
2022-08-05T08:12:35.370Z,18.24
2022-08-05T08:15:15.622Z,18.23
2022-08-05T08:17:52.611Z,18.19
2022-08-05T08:21:00.162Z,18.12
2022-08-05T08:24:00.323Z,18.06
2022-08-05T08:26:04.400Z,18.12
2022-08-05T08:28:36.611Z,18.19
2022-08-05T08:31:16.391Z,18.34
2022-08-05T08:33:46.843Z,18.49
2022-08-05T08:36:39.240Z,18.66
2022-08-05T08:39:15.033Z,18.84
2022-08-05T08:41:52.412Z,18.97
2022-08-05T08:45:22.849Z,19.03
2022-08-05T08:48:05.917Z,19.06
2022-08-05T08:50:30.438Z,19.12
2022-08-05T08:53:08.021Z,19.14
2022-08-05T08:56:03.175Z,19.18
2022-08-05T08:58:44.014Z,19.11
2022-08-05T09:01:18.214Z,18.98
2022-08-05T09:03:52.845Z,18.92
2022-08-05T09:06:29.992Z,18.91
2022-08-05T09:09:01.829Z,18.92
2022-08-05T09:11:51.727Z,18.95
2022-08-05T09:14:58.879Z,19.01
2022-08-05T09:17:40.017Z,19.01
2022-08-05T09:20:05.089Z,18.92
2022-08-05T09:23:22.135Z,18.84
2022-08-05T09:26:08.495Z,18.90
2022-08-05T09:28:40.860Z,18.93
2022-08-05T09:31:43.729Z,18.98
2022-08-05T09:34:03.580Z,19.06
2022-08-05T09:36:56.221Z,19.13
2022-08-05T09:39:45.071Z,19.26
2022-08-05T09:42:22.986Z,19.29
2022-08-05T09:45:03.254Z,19.25
2022-08-05T09:47:54.990Z,19.38
2022-08-05T09:50:43.567Z,19.54
2022-08-05T09:53:26.078Z,19.62
2022-08-05T09:56:04.622Z,19.62
2022-08-05T09:58:41.870Z,19.72
2022-08-05T10:01:31.619Z,19.83
2022-08-05T10:04:10.251Z,19.94
2022-08-05T10:06:40.461Z,19.91
2022-08-05T10:09:28.304Z,19.83
2022-08-05T10:12:30.169Z,19.75
2022-08-05T10:15:34.383Z,19.68
2022-08-05T10:18:11.288Z,19.76
2022-08-05T10:20:47.697Z,19.80
2022-08-05T10:23:34.007Z,19.81
2022-08-05T10:26:14.244Z,19.78
2022-08-05T10:28:44.916Z,19.74
2022-08-05T10:32:53.760Z,19.74
2022-08-05T10:34:03.982Z,19.75
2022-08-05T10:36:36.517Z,19.75
2022-08-05T10:39:11.760Z,19.72
2022-08-05T10:42:02.091Z,19.62
2022-08-05T10:44:33.675Z,19.53
2022-08-05T10:47:26.910Z,19.50
2022-08-05T10:50:33.151Z,19.50
2022-08-05T10:52:59.962Z,19.49
2022-08-05T10:55:30.492Z,19.47
2022-08-05T10:58:14.979Z,19.36
2022-08-05T11:00:54.937Z,19.29
2022-08-05T11:03:29.322Z,19.18
2022-08-05T11:06:16.210Z,19.09
2022-08-05T11:09:39.237Z,19.03
2022-08-05T11:12:54.322Z,18.95
2022-08-05T11:16:01.217Z,18.93
2022-08-05T11:18:29.741Z,18.88
2022-08-05T11:20:59.064Z,18.88
2022-08-05T11:24:05.570Z,18.86
2022-08-05T11:26:28.101Z,18.82
2022-08-05T11:28:59.417Z,18.78
2022-08-05T11:31:58.907Z,18.75
2022-08-05T11:34:38.717Z,18.69
2022-08-05T11:38:30.794Z,18.71
2022-08-05T11:40:03.280Z,18.75
2022-08-05T11:42:37.835Z,18.81
2022-08-05T11:45:14.309Z,18.88
2022-08-05T11:47:54.497Z,18.96
2022-08-05T11:50:23.504Z,19.12
2022-08-05T11:52:57.563Z,19.31
2022-08-05T11:55:32.047Z,19.45
2022-08-05T11:58:09.771Z,19.57
2022-08-05T12:00:41.665Z,19.66
2022-08-05T12:03:29.284Z,19.70
2022-08-05T12:06:06.038Z,19.77
2022-08-05T12:08:49.865Z,19.84
2022-08-05T12:11:22.173Z,19.99
2022-08-05T12:13:58.685Z,20.11
2022-08-05T12:16:38.438Z,20.16
2022-08-05T12:19:11.139Z,20.18
2022-08-05T12:21:59.414Z,20.19
2022-08-05T12:24:30.047Z,20.18
2022-08-05T12:26:58.574Z,20.11
2022-08-05T12:29:29.054Z,20.04
2022-08-05T12:32:09.583Z,19.95
2022-08-05T12:34:40.116Z,19.90
2022-08-05T12:37:17.410Z,19.87
2022-08-05T12:39:51.788Z,19.89
2022-08-05T12:42:25.383Z,19.96
2022-08-05T12:44:53.897Z,20.08
2022-08-05T12:47:32.569Z,20.18
2022-08-05T12:50:16.239Z,20.25
2022-08-05T12:52:56.379Z,20.34
2022-08-05T12:55:32.790Z,20.44
2022-08-05T12:58:48.552Z,20.59
2022-08-05T13:02:04.440Z,20.71
2022-08-05T13:03:42.127Z,20.84
2022-08-05T13:06:17.368Z,21.04
2022-08-05T13:08:52.197Z,21.21
2022-08-05T13:11:25.429Z,21.41
2022-08-05T13:14:24.689Z,21.49
2022-08-05T13:16:56.608Z,21.49
2022-08-05T13:19:27.543Z,21.44
2022-08-05T13:22:27.806Z,21.50
2022-08-05T13:25:05.788Z,21.57
2022-08-05T13:27:39.694Z,21.60
2022-08-05T13:30:35.221Z,21.73
2022-08-05T13:33:01.374Z,21.97
2022-08-05T13:35:47.637Z,22.00
2022-08-05T13:38:30.386Z,21.97
2022-08-05T13:41:02.719Z,21.91
2022-08-05T13:43:44.130Z,21.84
2022-08-05T13:46:43.873Z,21.92
2022-08-05T13:49:10.170Z,22.06
2022-08-05T13:51:41.351Z,22.06
2022-08-05T13:54:13.478Z,21.96
2022-08-05T13:56:51.087Z,21.84
2022-08-05T13:59:24.050Z,21.76
2022-08-05T14:01:57.406Z,21.99
2022-08-05T14:04:49.981Z,22.30
2022-08-05T14:07:26.337Z,22.77
2022-08-05T14:10:18.964Z,23.14
2022-08-05T14:12:57.253Z,23.45
2022-08-05T14:16:09.007Z,23.68
2022-08-05T14:18:17.474Z,23.84
2022-08-05T14:20:48.316Z,23.85
2022-08-05T14:23:23.839Z,23.80
2022-08-05T14:25:58.523Z,23.75
2022-08-05T14:28:28.674Z,23.67
2022-08-05T14:30:57.352Z,23.51
2022-08-05T14:33:25.854Z,23.34
2022-08-05T14:35:54.953Z,23.15
2022-08-05T14:38:31.987Z,22.99
2022-08-05T14:41:07.498Z,22.84
2022-08-05T14:43:57.732Z,22.77
2022-08-05T14:46:29.558Z,22.74
2022-08-05T14:49:06.441Z,22.67
2022-08-05T14:51:37.969Z,22.55
2022-08-05T14:54:28.854Z,22.41
2022-08-05T14:56:56.828Z,22.29
2022-08-05T14:59:25.090Z,22.20
2022-08-05T15:01:58.250Z,22.14
2022-08-05T15:04:29.186Z,22.13
2022-08-05T15:07:00.718Z,22.16
2022-08-05T15:09:54.211Z,22.24
2022-08-05T15:12:21.128Z,22.34
2022-08-05T15:14:55.325Z,22.41
2022-08-05T15:17:46.059Z,22.49
2022-08-05T15:20:19.103Z,22.52
2022-08-05T15:22:54.442Z,22.58
2022-08-05T15:25:41.047Z,22.65
2022-08-05T15:28:15.953Z,22.74
2022-08-05T15:30:45.828Z,22.80
2022-08-05T15:33:56.773Z,22.87
2022-08-05T15:36:05.343Z,22.85
2022-08-05T15:38:41.077Z,22.75
2022-08-05T15:41:23.305Z,22.59
2022-08-05T15:43:55.177Z,22.38
2022-08-05T15:46:25.125Z,22.22
2022-08-05T15:49:01.407Z,22.12
2022-08-05T15:52:10.272Z,22.02
2022-08-05T15:54:34.818Z,21.96
2022-08-05T15:57:07.318Z,21.86
2022-08-05T15:59:38.258Z,21.70
2022-08-05T16:02:09.189Z,21.26
2022-08-05T16:04:37.692Z,20.78
2022-08-05T16:07:10.782Z,20.44
2022-08-05T16:09:41.755Z,20.13
2022-08-05T16:12:11.485Z,19.95
2022-08-05T16:14:42.168Z,19.84
2022-08-05T16:17:12.658Z,19.76
2022-08-05T16:20:04.904Z,19.67
2022-08-05T16:22:33.979Z,19.54
2022-08-05T16:25:08.016Z,19.44
2022-08-05T16:27:59.607Z,19.36
2022-08-05T16:30:30.731Z,19.25
2022-08-05T16:33:01.391Z,19.17
2022-08-05T16:35:32.163Z,19.09
2022-08-05T16:38:23.706Z,19.03
2022-08-05T16:40:55.010Z,18.97
2022-08-05T16:43:25.056Z,18.88
2022-08-05T16:46:04.965Z,18.78
2022-08-05T16:48:38.991Z,18.76
2022-08-05T16:51:08.918Z,18.79
2022-08-05T16:54:05.422Z,18.82
2022-08-05T16:56:27.392Z,18.84
2022-08-05T16:58:55.921Z,18.83
2022-08-05T17:01:26.870Z,18.77
2022-08-05T17:03:55.298Z,18.70
2022-08-05T17:06:24.907Z,18.63
2022-08-05T17:08:54.364Z,18.60
2022-08-05T17:11:25.371Z,18.57
2022-08-05T17:14:05.210Z,18.49
2022-08-05T17:16:37.231Z,18.40
2022-08-05T17:19:07.709Z,18.30
2022-08-05T17:21:39.555Z,18.20
2022-08-05T17:24:19.487Z,18.08
2022-08-05T17:26:58.695Z,17.93
2022-08-05T17:29:39.960Z,17.79
2022-08-05T17:32:17.193Z,17.65
2022-08-05T17:34:48.031Z,17.53
2022-08-05T17:37:40.388Z,17.43
2022-08-05T17:40:10.133Z,17.30
2022-08-05T17:42:42.952Z,17.22
2022-08-05T17:45:21.764Z,17.13
2022-08-05T17:47:55.549Z,17.05
2022-08-05T17:50:28.771Z,16.98
2022-08-05T17:53:00.646Z,16.94
2022-08-05T17:55:38.468Z,16.90
2022-08-05T17:58:14.640Z,16.86
2022-08-05T18:00:50.532Z,16.81
2022-08-05T18:03:56.016Z,16.74
2022-08-05T18:06:15.061Z,16.70
2022-08-05T18:08:52.354Z,16.70
2022-08-05T18:11:23.794Z,16.72
2022-08-05T18:13:55.403Z,16.71
2022-08-05T18:16:24.095Z,16.69
2022-08-05T18:18:53.783Z,16.63
2022-08-05T18:21:22.924Z,16.56
2022-08-05T18:23:55.022Z,16.47
2022-08-05T18:26:27.824Z,16.44
2022-08-05T18:28:58.187Z,16.41
2022-08-05T18:31:32.943Z,16.41
2022-08-05T18:34:06.220Z,16.40
2022-08-05T18:36:36.326Z,16.38
2022-08-05T18:39:06.672Z,16.36
2022-08-05T18:41:58.535Z,16.31
2022-08-05T18:44:34.865Z,16.29
2022-08-05T18:47:04.933Z,16.27
2022-08-05T18:49:57.842Z,16.25
2022-08-05T18:52:41.734Z,16.22
2022-08-05T18:55:21.396Z,16.19
2022-08-05T18:57:53.882Z,16.18
2022-08-05T19:00:26.997Z,16.15
2022-08-05T19:03:04.021Z,16.11
2022-08-05T19:06:11.089Z,16.05
2022-08-05T19:08:30.556Z,15.99
2022-08-05T19:11:04.543Z,15.92
2022-08-05T19:13:35.931Z,15.86
2022-08-05T19:16:25.151Z,15.79
2022-08-05T19:18:56.801Z,15.72
2022-08-05T19:21:29.517Z,15.66
2022-08-05T19:24:05.399Z,15.63
2022-08-05T19:26:54.517Z,15.60
2022-08-05T19:29:26.593Z,15.55
2022-08-05T19:32:04.914Z,15.50
2022-08-05T19:34:34.899Z,15.46
2022-08-05T19:37:05.062Z,15.42
2022-08-05T19:39:45.617Z,15.38
2022-08-05T19:42:35.864Z,15.32
2022-08-05T19:45:06.538Z,15.26
2022-08-05T19:47:37.509Z,15.22
2022-08-05T19:50:10.540Z,15.17
2022-08-05T19:52:41.895Z,15.15
2022-08-05T19:56:13.924Z,15.14
2022-08-05T19:58:28.853Z,15.14
2022-08-05T20:00:52.767Z,15.13
2022-08-05T20:03:21.197Z,15.14
2022-08-05T20:05:51.406Z,15.13
2022-08-05T20:08:24.507Z,15.12
2022-08-05T20:10:53.495Z,15.09
2022-08-05T20:13:30.146Z,15.05
2022-08-05T20:16:10.974Z,15.01
2022-08-05T20:18:39.342Z,14.98
2022-08-05T20:21:08.703Z,14.97
2022-08-05T20:23:51.522Z,14.95
2022-08-05T20:26:24.641Z,14.92
2022-08-05T20:28:57.397Z,14.87
2022-08-05T20:31:41.967Z,14.85
2022-08-05T20:34:12.684Z,14.82
2022-08-05T20:36:43.064Z,14.81
2022-08-05T20:39:16.473Z,14.77
2022-08-05T20:41:46.729Z,14.75
2022-08-05T20:44:29.901Z,14.71
2022-08-05T20:47:00.884Z,14.67
2022-08-05T20:49:29.630Z,14.63
2022-08-05T20:52:01.715Z,14.59
2022-08-05T20:54:43.463Z,14.55
2022-08-05T20:57:24.571Z,14.50
2022-08-05T21:00:41.546Z,14.44
2022-08-05T21:03:06.277Z,14.39
2022-08-05T21:05:53.372Z,14.36
2022-08-05T21:08:26.788Z,14.32
2022-08-05T21:10:58.421Z,14.21
2022-08-05T21:13:55.802Z,14.21
2022-08-05T21:16:15.667Z,14.18
2022-08-05T21:18:45.359Z,14.16
2022-08-05T21:21:13.718Z,14.11
2022-08-05T21:23:42.055Z,14.08
2022-08-05T21:26:12.305Z,14.04
2022-08-05T21:28:47.611Z,14.02
2022-08-05T21:31:19.644Z,13.99
2022-08-05T21:33:49.362Z,13.94
2022-08-05T21:36:27.588Z,13.92
2022-08-05T21:38:58.658Z,13.88
2022-08-05T21:41:32.970Z,13.85
2022-08-05T21:44:04.395Z,13.81
2022-08-05T21:46:34.581Z,13.79
2022-08-05T21:49:04.786Z,13.76
2022-08-05T21:52:22.980Z,13.73
2022-08-05T21:54:28.013Z,13.70
2022-08-05T22:00:04.007Z,13.63
2022-08-05T22:02:34.940Z,13.59
2022-08-05T22:05:04.624Z,13.57
2022-08-05T22:07:40.452Z,13.54
2022-08-05T22:10:26.787Z,13.50
2022-08-05T22:12:58.787Z,13.49
2022-08-05T22:16:01.210Z,13.46
2022-08-05T22:18:16.317Z,13.42
2022-08-05T22:20:47.927Z,13.40
2022-08-05T22:24:00.948Z,13.38
2022-08-05T22:26:49.913Z,13.34
2022-08-05T22:29:26.679Z,13.33
2022-08-05T22:31:59.527Z,13.31
2022-08-05T22:34:28.709Z,13.22
2022-08-05T22:36:59.100Z,13.24
2022-08-05T22:39:33.407Z,13.22
2022-08-05T22:42:10.353Z,13.20
2022-08-05T22:44:48.559Z,13.17
2022-08-05T22:47:29.517Z,13.15
2022-08-05T22:50:21.870Z,13.13
2022-08-05T22:52:49.606Z,13.10
2022-08-05T22:55:21.292Z,13.08
2022-08-05T22:57:50.912Z,13.06
2022-08-05T23:00:22.257Z,13.04
2022-08-05T23:02:52.159Z,13.04
2022-08-05T23:05:22.149Z,13.04
2022-08-05T23:07:51.213Z,13.02
2022-08-05T23:10:20.860Z,13.01
2022-08-05T23:12:54.399Z,12.99
2022-08-05T23:15:29.093Z,12.96
2022-08-05T23:18:02.091Z,12.94
2022-08-05T23:20:33.204Z,12.91
2022-08-05T23:23:06.010Z,12.89
2022-08-05T23:25:54.831Z,12.87
2022-08-05T23:28:27.750Z,12.83
2022-08-05T23:31:16.062Z,12.81
2022-08-05T23:34:05.106Z,12.80
2022-08-05T23:36:39.913Z,12.77
2022-08-05T23:39:17.174Z,12.74
2022-08-05T23:41:52.200Z,12.74
2022-08-05T23:44:22.706Z,12.74
2022-08-05T23:46:57.643Z,12.70
2022-08-05T23:49:35.910Z,12.70
2022-08-05T23:52:25.354Z,12.68
2022-08-05T23:54:55.119Z,12.66
2022-08-05T23:57:24.331Z,12.66
